TAM3204 SBGR-SBFI
Flight info
| Callsign | TAM3204 |
|---|---|
| Flight time | 1h 20m |
| Altitude | 36000 |
| Route | ASETA UZ152 UPORU |
| Aircraft | A320/M-SDE3FGHIRWY/LB1 |
Departure
| Time | 2026-04-20 18:31 |
|---|---|
| Airport | São Paulo/Guarulhos–Governor André Franco Montoro International Airport (SBGR) |
Arrival
| Time | 2026-04-20 19:52 |
|---|---|
| Airport | Cataratas International Airport (SBFI) |
| Time | Latitude | Longitude | Altitude | Speed | Heading |
|---|---|---|---|---|---|
| 2026-04-20 17:52 | -23.42810 | -46.48243 | 2467 ft | 0 kts | 266° |
| 2026-04-20 18:21 | -23.42809 | -46.48222 | 2461 ft | 4 kts | 264° |
| 2026-04-20 18:22 | -23.42804 | -46.48193 | 2463 ft | 4 kts | 242° |
| 2026-04-20 18:22 | -23.42790 | -46.48179 | 2461 ft | 2 kts | 176° |
| 2026-04-20 18:22 | -23.42789 | -46.48179 | 2461 ft | 0 kts | 175° |
| 2026-04-20 18:25 | -23.42804 | -46.48178 | 2461 ft | 4 kts | 175° |
| 2026-04-20 18:25 | -23.42844 | -46.48174 | 2464 ft | 7 kts | 174° |
| 2026-04-20 18:25 | -23.42893 | -46.48168 | 2463 ft | 8 kts | 169° |
| 2026-04-20 18:26 | -23.42945 | -46.48145 | 2464 ft | 9 kts | 161° |
| 2026-04-20 18:26 | -23.43009 | -46.48136 | 2465 ft | 10 kts | 174° |
| 2026-04-20 18:26 | -23.43077 | -46.48129 | 2465 ft | 8 kts | 174° |
| 2026-04-20 18:26 | -23.43123 | -46.48154 | 2466 ft | 8 kts | 250° |
| 2026-04-20 18:27 | -23.43137 | -46.48206 | 2461 ft | 6 kts | 253° |
| 2026-04-20 18:27 | -23.43150 | -46.48252 | 2461 ft | 7 kts | 253° |
| 2026-04-20 18:27 | -23.43163 | -46.48301 | 2461 ft | 6 kts | 254° |
| 2026-04-20 18:27 | -23.43173 | -46.48339 | 2465 ft | 4 kts | 254° |
| 2026-04-20 18:28 | -23.43193 | -46.48384 | 2463 ft | 8 kts | 224° |
| 2026-04-20 18:28 | -23.43245 | -46.48384 | 2464 ft | 8 kts | 162° |
| 2026-04-20 18:28 | -23.43293 | -46.48369 | 2461 ft | 4 kts | 164° |
| 2026-04-20 18:28 | -23.43298 | -46.48367 | 2465 ft | 0 kts | 163° |
| 2026-04-20 18:29 | -23.43322 | -46.48360 | 2463 ft | 6 kts | 163° |
| 2026-04-20 18:29 | -23.43366 | -46.48345 | 2463 ft | 7 kts | 163° |
| 2026-04-20 18:30 | -23.43413 | -46.48312 | 2461 ft | 9 kts | 116° |
| 2026-04-20 18:30 | -23.43405 | -46.48247 | 2462 ft | 8 kts | 74° |
| 2026-04-20 18:30 | -23.43390 | -46.48193 | 2462 ft | 10 kts | 74° |
| 2026-04-20 18:30 | -23.43321 | -46.47941 | 2463 ft | 70 kts | 74° |
| 2026-04-20 18:31 | -23.43123 | -46.47200 | 2464 ft | 131 kts | 74° |
| 2026-04-20 18:31 | -23.42815 | -46.46062 | 2464 ft | 179 kts | 74° |
| 2026-04-20 18:31 | -23.42435 | -46.44705 | 2927 ft | 186 kts | 74° |
| 2026-04-20 18:31 | -23.42060 | -46.43369 | 3557 ft | 184 kts | 74° |
| 2026-04-20 18:32 | -23.41804 | -46.42492 | 3940 ft | 183 kts | 75° |
| 2026-04-20 18:32 | -23.41413 | -46.41161 | 4374 ft | 191 kts | 75° |
| 2026-04-20 18:32 | -23.40984 | -46.39678 | 4658 ft | 214 kts | 76° |
| 2026-04-20 18:32 | -23.40513 | -46.38041 | 4995 ft | 238 kts | 77° |
| 2026-04-20 18:33 | -23.40198 | -46.36231 | 5306 ft | 259 kts | 92° |
| 2026-04-20 18:33 | -23.40598 | -46.34277 | 5874 ft | 270 kts | 111° |
| 2026-04-20 18:33 | -23.41242 | -46.32326 | 6635 ft | 277 kts | 111° |
| 2026-04-20 18:33 | -23.41896 | -46.30335 | 7383 ft | 281 kts | 111° |
| 2026-04-20 18:34 | -23.42554 | -46.28321 | 8135 ft | 284 kts | 111° |
| 2026-04-20 18:34 | -23.43426 | -46.26398 | 8824 ft | 286 kts | 131° |
| 2026-04-20 18:34 | -23.45000 | -46.25153 | 9061 ft | 280 kts | 163° |
| 2026-04-20 18:34 | -23.46937 | -46.25057 | 9691 ft | 281 kts | 190° |
| 2026-04-20 18:35 | -23.48863 | -46.25462 | 10414 ft | 286 kts | 190° |
| 2026-04-20 18:35 | -23.50895 | -46.25884 | 10609 ft | 309 kts | 191° |
| 2026-04-20 18:35 | -23.52983 | -46.26667 | 10960 ft | 324 kts | 207° |
| 2026-04-20 18:35 | -23.54816 | -46.28138 | 11564 ft | 332 kts | 223° |
| 2026-04-20 18:36 | -23.56188 | -46.30185 | 12225 ft | 339 kts | 241° |
| 2026-04-20 18:36 | -23.56949 | -46.32648 | 12876 ft | 347 kts | 255° |
| 2026-04-20 18:36 | -23.57466 | -46.35223 | 13544 ft | 350 kts | 254° |
| 2026-04-20 18:36 | -23.57974 | -46.37796 | 14131 ft | 353 kts | 254° |
| 2026-04-20 18:37 | -23.58490 | -46.40435 | 14692 ft | 357 kts | 254° |
| 2026-04-20 18:37 | -23.59008 | -46.43085 | 15247 ft | 359 kts | 254° |
| 2026-04-20 18:37 | -23.59532 | -46.45761 | 15803 ft | 362 kts | 254° |
| 2026-04-20 18:37 | -23.60064 | -46.48458 | 16074 ft | 364 kts | 254° |
| 2026-04-20 18:38 | -23.60598 | -46.51155 | 16146 ft | 363 kts | 254° |
| 2026-04-20 18:38 | -23.61101 | -46.53858 | 16162 ft | 364 kts | 256° |
| 2026-04-20 18:38 | -23.61533 | -46.56581 | 16167 ft | 365 kts | 257° |
| 2026-04-20 18:38 | -23.61922 | -46.59323 | 16166 ft | 366 kts | 258° |
| 2026-04-20 18:39 | -23.62297 | -46.62066 | 16168 ft | 366 kts | 258° |
| 2026-04-20 18:39 | -23.62817 | -46.64764 | 16167 ft | 362 kts | 248° |
| 2026-04-20 18:39 | -23.63806 | -46.67265 | 16167 ft | 357 kts | 236° |
| 2026-04-20 18:39 | -23.65121 | -46.69558 | 16167 ft | 357 kts | 234° |
| 2026-04-20 18:40 | -23.66466 | -46.71859 | 16628 ft | 360 kts | 234° |
| 2026-04-20 18:40 | -23.67800 | -46.74175 | 17206 ft | 363 kts | 237° |
| 2026-04-20 18:40 | -23.68756 | -46.76754 | 17744 ft | 373 kts | 253° |
| 2026-04-20 18:40 | -23.69013 | -46.79596 | 18262 ft | 382 kts | 270° |
| 2026-04-20 18:41 | -23.68485 | -46.82467 | 18736 ft | 392 kts | 288° |
| 2026-04-20 18:41 | -23.67217 | -46.85076 | 19192 ft | 399 kts | 302° |
| 2026-04-20 18:41 | -23.65633 | -46.87570 | 19642 ft | 401 kts | 302° |
| 2026-04-20 18:41 | -23.64036 | -46.90077 | 20159 ft | 402 kts | 302° |
| 2026-04-20 18:42 | -23.62438 | -46.92588 | 20670 ft | 404 kts | 303° |
| 2026-04-20 18:42 | -23.60835 | -46.95109 | 21190 ft | 405 kts | 303° |
| 2026-04-20 18:42 | -23.59227 | -46.97642 | 21701 ft | 407 kts | 302° |
| 2026-04-20 18:42 | -23.57613 | -47.00188 | 22188 ft | 409 kts | 303° |
| 2026-04-20 18:43 | -23.55994 | -47.02737 | 22690 ft | 411 kts | 303° |
| 2026-04-20 18:43 | -23.54359 | -47.05309 | 23177 ft | 413 kts | 303° |
| 2026-04-20 18:43 | -23.52727 | -47.07881 | 23660 ft | 414 kts | 303° |
| 2026-04-20 18:43 | -23.51083 | -47.10466 | 24064 ft | 416 kts | 303° |
| 2026-04-20 18:44 | -23.49431 | -47.13062 | 24456 ft | 418 kts | 303° |
| 2026-04-20 18:44 | -23.47790 | -47.15643 | 24817 ft | 420 kts | 303° |
| 2026-04-20 18:44 | -23.46122 | -47.18265 | 25182 ft | 422 kts | 303° |
| 2026-04-20 18:44 | -23.44446 | -47.20896 | 25550 ft | 424 kts | 303° |
| 2026-04-20 18:45 | -23.42761 | -47.23536 | 25918 ft | 425 kts | 303° |
| 2026-04-20 18:45 | -23.41072 | -47.26186 | 26277 ft | 427 kts | 303° |
| 2026-04-20 18:45 | -23.39376 | -47.28847 | 26615 ft | 429 kts | 303° |
| 2026-04-20 18:45 | -23.37669 | -47.31523 | 26960 ft | 430 kts | 303° |
| 2026-04-20 18:46 | -23.35959 | -47.34201 | 27312 ft | 432 kts | 303° |
| 2026-04-20 18:46 | -23.34244 | -47.36890 | 27637 ft | 433 kts | 303° |
| 2026-04-20 18:46 | -23.32520 | -47.39594 | 27930 ft | 436 kts | 303° |
| 2026-04-20 18:46 | -23.30787 | -47.42310 | 28248 ft | 438 kts | 303° |
| 2026-04-20 18:47 | -23.29046 | -47.45033 | 28568 ft | 439 kts | 303° |
| 2026-04-20 18:47 | -23.27315 | -47.47733 | 28875 ft | 441 kts | 304° |
| 2026-04-20 18:47 | -23.25558 | -47.50474 | 29179 ft | 442 kts | 303° |
| 2026-04-20 18:47 | -23.23793 | -47.53231 | 29487 ft | 444 kts | 304° |
| 2026-04-20 18:48 | -23.22025 | -47.55989 | 29783 ft | 445 kts | 303° |
| 2026-04-20 18:48 | -23.20459 | -47.58891 | 30052 ft | 446 kts | 293° |
| 2026-04-20 18:48 | -23.19429 | -47.62062 | 30295 ft | 445 kts | 282° |
| 2026-04-20 18:48 | -23.18981 | -47.65390 | 30505 ft | 446 kts | 271° |
| 2026-04-20 18:49 | -23.19130 | -47.68754 | 30704 ft | 447 kts | 260° |
| 2026-04-20 18:49 | -23.19812 | -47.72048 | 30909 ft | 448 kts | 255° |
| 2026-04-20 18:49 | -23.20591 | -47.75337 | 31135 ft | 449 kts | 255° |
| 2026-04-20 18:49 | -23.21364 | -47.78617 | 31448 ft | 447 kts | 254° |
| 2026-04-20 18:50 | -23.22129 | -47.81884 | 31771 ft | 446 kts | 254° |
| 2026-04-20 18:50 | -23.22882 | -47.85109 | 32108 ft | 444 kts | 254° |
| 2026-04-20 18:50 | -23.23638 | -47.88359 | 32433 ft | 443 kts | 254° |
| 2026-04-20 18:50 | -23.24394 | -47.91611 | 32748 ft | 442 kts | 253° |
| 2026-04-20 18:51 | -23.25145 | -47.94848 | 33057 ft | 441 kts | 253° |
| 2026-04-20 18:51 | -23.25895 | -47.98078 | 33356 ft | 440 kts | 253° |
| 2026-04-20 18:51 | -23.26644 | -48.01301 | 33672 ft | 439 kts | 253° |
| 2026-04-20 18:51 | -23.27392 | -48.04510 | 34039 ft | 436 kts | 253° |
| 2026-04-20 18:52 | -23.28133 | -48.07699 | 34358 ft | 434 kts | 253° |
| 2026-04-20 18:52 | -23.28772 | -48.10910 | 34657 ft | 434 kts | 258° |
| 2026-04-20 18:52 | -23.29247 | -48.14143 | 34925 ft | 432 kts | 258° |
| 2026-04-20 18:52 | -23.29720 | -48.17365 | 35190 ft | 431 kts | 258° |
| 2026-04-20 18:53 | -23.30182 | -48.20534 | 35448 ft | 429 kts | 258° |
| 2026-04-20 18:53 | -23.30650 | -48.23733 | 35706 ft | 427 kts | 258° |
| 2026-04-20 18:53 | -23.31122 | -48.26964 | 35944 ft | 426 kts | 258° |
| 2026-04-20 18:53 | -23.31583 | -48.30100 | 36028 ft | 424 kts | 257° |
| 2026-04-20 18:54 | -23.32517 | -48.36458 | 36045 ft | 429 kts | 258° |
| 2026-04-20 18:54 | -23.33754 | -48.42789 | 36049 ft | 426 kts | 246° |
| 2026-04-20 18:55 | -23.35957 | -48.48756 | 36048 ft | 425 kts | 245° |
| 2026-04-20 18:55 | -23.38174 | -48.54714 | 36048 ft | 425 kts | 246° |
| 2026-04-20 18:56 | -23.40381 | -48.60668 | 36045 ft | 425 kts | 246° |
| 2026-04-20 18:56 | -23.42585 | -48.66644 | 36047 ft | 425 kts | 246° |
| 2026-04-20 18:57 | -23.44787 | -48.72613 | 36049 ft | 425 kts | 246° |
| 2026-04-20 18:57 | -23.46992 | -48.78583 | 36047 ft | 425 kts | 246° |
| 2026-04-20 18:58 | -23.49194 | -48.84558 | 36050 ft | 425 kts | 246° |
| 2026-04-20 18:58 | -23.51378 | -48.90500 | 36053 ft | 425 kts | 246° |
| 2026-04-20 18:59 | -23.53578 | -48.96488 | 36053 ft | 425 kts | 246° |
| 2026-04-20 18:59 | -23.55768 | -49.02468 | 36052 ft | 425 kts | 246° |
| 2026-04-20 19:00 | -23.57963 | -49.08454 | 36053 ft | 425 kts | 246° |
| 2026-04-20 19:00 | -23.60150 | -49.14436 | 36052 ft | 425 kts | 246° |
| 2026-04-20 19:01 | -23.62318 | -49.20383 | 36050 ft | 425 kts | 246° |
| 2026-04-20 19:01 | -23.64499 | -49.26372 | 36048 ft | 425 kts | 246° |
| 2026-04-20 19:02 | -23.66693 | -49.32375 | 36050 ft | 425 kts | 246° |
| 2026-04-20 19:02 | -23.68504 | -49.37353 | 36051 ft | 425 kts | 246° |
| 2026-04-20 19:03 | -23.71045 | -49.44363 | 36052 ft | 425 kts | 246° |
| 2026-04-20 19:03 | -23.73219 | -49.50364 | 36053 ft | 425 kts | 246° |
| 2026-04-20 19:04 | -23.75392 | -49.56363 | 36050 ft | 425 kts | 247° |
| 2026-04-20 19:04 | -23.77551 | -49.62362 | 36054 ft | 424 kts | 247° |
| 2026-04-20 19:05 | -23.79712 | -49.68355 | 36053 ft | 424 kts | 247° |
| 2026-04-20 19:05 | -23.81858 | -49.74305 | 36052 ft | 424 kts | 247° |
| 2026-04-20 19:06 | -23.84022 | -49.80336 | 36052 ft | 423 kts | 247° |
| 2026-04-20 19:06 | -23.86171 | -49.86325 | 36052 ft | 423 kts | 247° |
| 2026-04-20 19:07 | -23.88300 | -49.92278 | 36053 ft | 423 kts | 247° |
| 2026-04-20 19:07 | -23.90450 | -49.98270 | 36058 ft | 423 kts | 247° |
| 2026-04-20 19:08 | -23.93656 | -50.07264 | 36061 ft | 423 kts | 247° |
| 2026-04-20 19:09 | -23.95786 | -50.13257 | 36061 ft | 423 kts | 247° |
| 2026-04-20 19:09 | -23.97914 | -50.19244 | 36058 ft | 422 kts | 247° |
| 2026-04-20 19:10 | -24.00035 | -50.25222 | 36058 ft | 422 kts | 248° |
| 2026-04-20 19:10 | -24.02157 | -50.31209 | 36057 ft | 421 kts | 248° |
| 2026-04-20 19:11 | -24.04272 | -50.37194 | 36050 ft | 421 kts | 248° |
| 2026-04-20 19:11 | -24.06358 | -50.43137 | 36051 ft | 421 kts | 248° |
| 2026-04-20 19:12 | -24.08459 | -50.49119 | 36055 ft | 421 kts | 248° |
| 2026-04-20 19:12 | -24.10564 | -50.55107 | 36053 ft | 421 kts | 248° |
| 2026-04-20 19:13 | -24.12667 | -50.61091 | 36051 ft | 421 kts | 248° |
| 2026-04-20 19:13 | -24.14769 | -50.67069 | 36055 ft | 421 kts | 248° |
| 2026-04-20 19:14 | -24.16867 | -50.73056 | 36053 ft | 420 kts | 248° |
| 2026-04-20 19:14 | -24.18958 | -50.79028 | 36054 ft | 420 kts | 248° |
| 2026-04-20 19:15 | -24.21030 | -50.84967 | 36053 ft | 420 kts | 248° |
| 2026-04-20 19:15 | -24.23116 | -50.90949 | 36050 ft | 420 kts | 248° |
| 2026-04-20 19:16 | -24.25196 | -50.96924 | 36054 ft | 419 kts | 248° |
| 2026-04-20 19:16 | -24.27270 | -51.02898 | 36055 ft | 419 kts | 248° |
| 2026-04-20 19:17 | -24.29345 | -51.08867 | 36048 ft | 419 kts | 248° |
| 2026-04-20 19:17 | -24.31405 | -51.14838 | 36044 ft | 418 kts | 249° |
| 2026-04-20 19:18 | -24.33446 | -51.20768 | 36043 ft | 418 kts | 249° |
| 2026-04-20 19:18 | -24.35502 | -51.26736 | 36041 ft | 418 kts | 248° |
| 2026-04-20 19:19 | -24.37561 | -51.32698 | 36036 ft | 418 kts | 249° |
| 2026-04-20 19:19 | -24.39615 | -51.38664 | 36043 ft | 417 kts | 249° |
| 2026-04-20 19:20 | -24.41667 | -51.44623 | 36034 ft | 417 kts | 249° |
| 2026-04-20 19:20 | -24.43698 | -51.50541 | 36032 ft | 416 kts | 249° |
| 2026-04-20 19:21 | -24.45734 | -51.56492 | 36028 ft | 416 kts | 249° |
| 2026-04-20 19:21 | -24.47765 | -51.62446 | 36038 ft | 416 kts | 249° |
| 2026-04-20 19:22 | -24.49790 | -51.68398 | 36038 ft | 416 kts | 249° |
| 2026-04-20 19:22 | -24.51813 | -51.74343 | 36041 ft | 415 kts | 249° |
| 2026-04-20 19:23 | -24.53836 | -51.80285 | 36039 ft | 415 kts | 249° |
| 2026-04-20 19:23 | -24.55512 | -51.85227 | 36038 ft | 415 kts | 249° |
| 2026-04-20 19:24 | -24.57860 | -51.92129 | 36037 ft | 415 kts | 249° |
| 2026-04-20 19:24 | -24.59548 | -51.97103 | 36036 ft | 414 kts | 249° |
| 2026-04-20 19:25 | -24.61534 | -52.03007 | 36036 ft | 414 kts | 249° |
| 2026-04-20 19:25 | -24.63528 | -52.08936 | 36036 ft | 413 kts | 249° |
| 2026-04-20 19:26 | -24.65525 | -52.14859 | 36028 ft | 413 kts | 249° |
| 2026-04-20 19:26 | -24.67513 | -52.20796 | 36025 ft | 413 kts | 249° |
| 2026-04-20 19:27 | -24.69502 | -52.26724 | 36024 ft | 413 kts | 250° |
| 2026-04-20 19:27 | -24.71494 | -52.32651 | 36021 ft | 413 kts | 250° |
| 2026-04-20 19:28 | -24.73475 | -52.38578 | 36010 ft | 413 kts | 250° |
| 2026-04-20 19:28 | -24.75436 | -52.44467 | 36006 ft | 413 kts | 250° |
| 2026-04-20 19:29 | -24.77414 | -52.50400 | 36000 ft | 413 kts | 250° |
| 2026-04-20 19:29 | -24.79390 | -52.56339 | 35998 ft | 413 kts | 250° |
| 2026-04-20 19:30 | -24.81360 | -52.62265 | 35998 ft | 413 kts | 250° |
| 2026-04-20 19:30 | -24.83337 | -52.68198 | 35996 ft | 413 kts | 250° |
| 2026-04-20 19:31 | -24.85302 | -52.74138 | 35916 ft | 414 kts | 250° |
| 2026-04-20 19:31 | -24.86285 | -52.77127 | 35259 ft | 417 kts | 250° |
| 2026-04-20 19:31 | -24.87276 | -52.80138 | 34497 ft | 420 kts | 251° |
| 2026-04-20 19:31 | -24.88275 | -52.83166 | 33820 ft | 420 kts | 251° |
| 2026-04-20 19:32 | -24.89254 | -52.86134 | 33309 ft | 416 kts | 251° |
| 2026-04-20 19:32 | -24.90235 | -52.89113 | 32788 ft | 412 kts | 251° |
| 2026-04-20 19:32 | -24.91208 | -52.92069 | 32263 ft | 409 kts | 251° |
| 2026-04-20 19:32 | -24.92173 | -52.95005 | 31755 ft | 406 kts | 251° |
| 2026-04-20 19:33 | -24.93130 | -52.97924 | 31238 ft | 404 kts | 251° |
| 2026-04-20 19:33 | -24.94082 | -53.00830 | 30739 ft | 402 kts | 251° |
| 2026-04-20 19:33 | -24.95030 | -53.03723 | 30234 ft | 401 kts | 251° |
| 2026-04-20 19:33 | -24.95977 | -53.06605 | 29684 ft | 399 kts | 251° |
| 2026-04-20 19:34 | -24.96917 | -53.09469 | 29194 ft | 395 kts | 251° |
| 2026-04-20 19:34 | -24.97846 | -53.12307 | 28712 ft | 392 kts | 251° |
| 2026-04-20 19:34 | -24.98766 | -53.15123 | 28225 ft | 389 kts | 251° |
| 2026-04-20 19:34 | -24.99678 | -53.17918 | 27755 ft | 386 kts | 251° |
| 2026-04-20 19:35 | -25.00585 | -53.20692 | 27302 ft | 383 kts | 252° |
| 2026-04-20 19:35 | -25.01486 | -53.23448 | 26853 ft | 381 kts | 252° |
| 2026-04-20 19:35 | -25.02380 | -53.26187 | 26391 ft | 378 kts | 252° |
| 2026-04-20 19:35 | -25.03268 | -53.28907 | 25963 ft | 376 kts | 252° |
| 2026-04-20 19:36 | -25.04152 | -53.31618 | 25535 ft | 374 kts | 252° |
| 2026-04-20 19:36 | -25.05017 | -53.34277 | 25109 ft | 371 kts | 252° |
| 2026-04-20 19:36 | -25.05897 | -53.36987 | 24668 ft | 369 kts | 253° |
| 2026-04-20 19:36 | -25.06758 | -53.39642 | 24241 ft | 367 kts | 253° |
| 2026-04-20 19:37 | -25.07616 | -53.42289 | 23797 ft | 366 kts | 253° |
| 2026-04-20 19:37 | -25.08471 | -53.44927 | 23416 ft | 364 kts | 253° |
| 2026-04-20 19:37 | -25.09321 | -53.47550 | 22957 ft | 361 kts | 253° |
| 2026-04-20 19:37 | -25.10153 | -53.50116 | 22511 ft | 359 kts | 253° |
| 2026-04-20 19:38 | -25.10989 | -53.52698 | 22079 ft | 356 kts | 253° |
| 2026-04-20 19:38 | -25.11821 | -53.55272 | 21630 ft | 354 kts | 253° |
| 2026-04-20 19:38 | -25.12387 | -53.57060 | 21352 ft | 352 kts | 257° |
| 2026-04-20 19:38 | -25.13134 | -53.59621 | 20890 ft | 351 kts | 254° |
| 2026-04-20 19:39 | -25.13946 | -53.62161 | 20419 ft | 350 kts | 252° |
| 2026-04-20 19:39 | -25.14785 | -53.64682 | 19969 ft | 350 kts | 252° |
| 2026-04-20 19:39 | -25.15632 | -53.67200 | 19504 ft | 350 kts | 252° |
| 2026-04-20 19:39 | -25.16470 | -53.69717 | 19042 ft | 350 kts | 252° |
| 2026-04-20 19:40 | -25.17300 | -53.72252 | 18584 ft | 351 kts | 252° |
| 2026-04-20 19:40 | -25.18122 | -53.74791 | 18089 ft | 351 kts | 253° |
| 2026-04-20 19:40 | -25.18939 | -53.77332 | 17611 ft | 351 kts | 253° |
| 2026-04-20 19:40 | -25.19751 | -53.79864 | 17154 ft | 349 kts | 253° |
| 2026-04-20 19:41 | -25.20556 | -53.82387 | 16700 ft | 348 kts | 253° |
| 2026-04-20 19:41 | -25.21383 | -53.84892 | 16261 ft | 348 kts | 249° |
| 2026-04-20 19:41 | -25.22615 | -53.87195 | 15823 ft | 351 kts | 234° |
| 2026-04-20 19:41 | -25.24345 | -53.89101 | 15388 ft | 354 kts | 219° |
| 2026-04-20 19:42 | -25.26466 | -53.90501 | 14939 ft | 356 kts | 209° |
| 2026-04-20 19:42 | -25.28679 | -53.91737 | 14488 ft | 356 kts | 209° |
| 2026-04-20 19:42 | -25.30861 | -53.92964 | 14046 ft | 357 kts | 209° |
| 2026-04-20 19:42 | -25.33096 | -53.94230 | 13562 ft | 357 kts | 209° |
| 2026-04-20 19:43 | -25.35274 | -53.95464 | 13097 ft | 356 kts | 208° |
| 2026-04-20 19:43 | -25.37473 | -53.96707 | 12635 ft | 354 kts | 208° |
| 2026-04-20 19:43 | -25.39663 | -53.97941 | 12174 ft | 352 kts | 208° |
| 2026-04-20 19:43 | -25.41841 | -53.99172 | 11714 ft | 351 kts | 208° |
| 2026-04-20 19:44 | -25.44008 | -54.00397 | 11253 ft | 349 kts | 208° |
| 2026-04-20 19:44 | -25.46154 | -54.01638 | 10805 ft | 347 kts | 212° |
| 2026-04-20 19:44 | -25.48053 | -54.03245 | 10357 ft | 343 kts | 226° |
| 2026-04-20 19:44 | -25.49566 | -54.05258 | 10079 ft | 335 kts | 233° |
| 2026-04-20 19:45 | -25.50956 | -54.07263 | 9951 ft | 322 kts | 233° |
| 2026-04-20 19:45 | -25.52312 | -54.09191 | 9841 ft | 311 kts | 233° |
| 2026-04-20 19:45 | -25.53614 | -54.11031 | 9576 ft | 305 kts | 233° |
| 2026-04-20 19:45 | -25.54920 | -54.12872 | 9215 ft | 302 kts | 233° |
| 2026-04-20 19:46 | -25.56216 | -54.14697 | 8834 ft | 300 kts | 233° |
| 2026-04-20 19:46 | -25.57502 | -54.16511 | 8465 ft | 298 kts | 233° |
| 2026-04-20 19:46 | -25.58779 | -54.18319 | 8086 ft | 296 kts | 233° |
| 2026-04-20 19:46 | -25.60041 | -54.20114 | 7706 ft | 294 kts | 234° |
| 2026-04-20 19:47 | -25.61294 | -54.21899 | 7265 ft | 290 kts | 234° |
| 2026-04-20 19:47 | -25.62524 | -54.23654 | 6628 ft | 288 kts | 234° |
| 2026-04-20 19:47 | -25.63762 | -54.25382 | 5972 ft | 285 kts | 233° |
| 2026-04-20 19:47 | -25.65029 | -54.27067 | 5294 ft | 284 kts | 233° |
| 2026-04-20 19:48 | -25.66311 | -54.28736 | 4565 ft | 284 kts | 232° |
| 2026-04-20 19:48 | -25.67580 | -54.30415 | 3825 ft | 283 kts | 237° |
| 2026-04-20 19:48 | -25.68361 | -54.32336 | 3237 ft | 271 kts | 263° |
| 2026-04-20 19:48 | -25.68359 | -54.34345 | 3000 ft | 255 kts | 285° |
| 2026-04-20 19:49 | -25.67743 | -54.36123 | 2861 ft | 240 kts | 298° |
| 2026-04-20 19:49 | -25.67035 | -54.37754 | 2774 ft | 230 kts | 298° |
| 2026-04-20 19:49 | -25.66354 | -54.39325 | 2666 ft | 220 kts | 299° |
| 2026-04-20 19:49 | -25.65696 | -54.40791 | 2541 ft | 206 kts | 306° |
| 2026-04-20 19:50 | -25.64838 | -54.41991 | 2329 ft | 193 kts | 314° |
| 2026-04-20 19:50 | -25.63989 | -54.43087 | 2017 ft | 183 kts | 314° |
| 2026-04-20 19:50 | -25.63178 | -54.44125 | 1752 ft | 171 kts | 314° |
| 2026-04-20 19:50 | -25.62414 | -54.45087 | 1511 ft | 163 kts | 313° |
| 2026-04-20 19:51 | -25.61680 | -54.46013 | 1278 ft | 157 kts | 312° |
| 2026-04-20 19:51 | -25.60984 | -54.46913 | 1098 ft | 154 kts | 311° |
| 2026-04-20 19:51 | -25.60298 | -54.47817 | 845 ft | 153 kts | 312° |
| 2026-04-20 19:51 | -25.59653 | -54.48630 | 768 ft | 113 kts | 310° |
| 2026-04-20 19:52 | -25.59291 | -54.49105 | 768 ft | 60 kts | 310° |
| 2026-04-20 19:52 | -25.59076 | -54.49382 | 767 ft | 43 kts | 311° |
| 2026-04-20 19:52 | -25.58951 | -54.49494 | 766 ft | 15 kts | 339° |
| 2026-04-20 19:52 | -25.58949 | -54.49534 | 766 ft | 5 kts | 170° |
| 2026-04-20 19:53 | -25.58994 | -54.49488 | 767 ft | 12 kts | 130° |